Spreckels, California
Current Conditions -  °F | °C
As of 3:53 PM on Thursday 18 Dec 2014 (Local Time) from KSNS Reporting Station
Clear Clear  
Wind Chill: 61°   Ceiling: Unl
Heat Index: 61°   Visibility: 10mi
Dew Point: 50°   Wind: 3mph
Humidity: 67%   Direction: 120°ESE
Pressure: 30.14"   Gusts: NA
Location:  36.62°N, 121.65°W
Report Text: KSNS 182353Z AUTO 12003KT 10SM CLR 16/10 A3014 RMK AO2 SLP217 60000 T01610100 10167 20133 55006 TSNO
Loading
Personal Weather Stations






























Interactive Weather Map New forecast layout! Learn more

10-Day Weather Forecast

Advertisements
Track Severe Weather on mobile